createdAt,value
2022-09-24T00:01:15.983Z,4.53
2022-09-24T00:04:21.166Z,3.80
2022-09-24T00:07:27.733Z,4.15
2022-09-24T00:10:30.679Z,4.75
2022-09-24T00:13:35.237Z,4.15
2022-09-24T00:16:40.264Z,4.25
2022-09-24T00:19:44.128Z,4.37
2022-09-24T00:22:47.103Z,4.07
2022-09-24T00:26:08.416Z,4.32
2022-09-24T00:29:14.061Z,4.85
2022-09-24T00:32:36.530Z,4.12
2022-09-24T00:35:42.260Z,4.55
2022-09-24T00:38:44.902Z,4.10
2022-09-24T00:41:49.143Z,5.18
2022-09-24T00:44:54.821Z,4.90
2022-09-24T00:47:59.256Z,3.97
2022-09-24T00:51:04.697Z,4.78
2022-09-24T00:54:19.761Z,4.47
2022-09-24T00:57:23.384Z,4.50
2022-09-24T01:00:27.008Z,4.10
2022-09-24T01:03:32.501Z,4.18
2022-09-24T01:06:56.694Z,5.25
2022-09-24T01:10:00.018Z,4.05
2022-09-24T01:13:16.694Z,4.15
2022-09-24T01:16:32.010Z,4.10
2022-09-24T01:20:15.811Z,4.35
2022-09-24T01:23:21.308Z,3.83
2022-09-24T01:26:46.378Z,4.00
2022-09-24T01:30:11.450Z,4.28
2022-09-24T01:33:20.382Z,5.03
2022-09-24T01:39:32.009Z,4.70
2022-09-24T01:42:37.753Z,4.45
2022-09-24T01:45:42.530Z,4.97
2022-09-24T01:48:45.933Z,4.62
2022-09-24T01:51:58.612Z,4.40
2022-09-24T01:55:15.992Z,4.78
2022-09-24T01:58:42.528Z,4.47
2022-09-24T02:01:53.655Z,4.95
2022-09-24T02:05:03.694Z,4.35
2022-09-24T02:08:47.075Z,4.72
2022-09-24T02:11:58.785Z,4.85
2022-09-24T02:15:09.070Z,4.10
2022-09-24T02:18:25.647Z,5.35
2022-09-24T02:21:30.462Z,4.87
2022-09-24T02:24:45.927Z,4.60
2022-09-24T02:27:48.587Z,5.15
2022-09-24T02:30:56.905Z,5.12
2022-09-24T02:34:22.855Z,4.70
2022-09-24T02:37:26.794Z,4.28
2022-09-24T02:40:33.586Z,4.95
2022-09-24T02:43:37.045Z,4.53
2022-09-24T02:46:41.299Z,4.95
2022-09-24T02:49:44.794Z,4.75
2022-09-24T02:52:47.414Z,4.22
2022-09-24T02:55:52.132Z,4.80
2022-09-24T02:59:04.747Z,4.55
2022-09-24T03:02:22.059Z,4.40
2022-09-24T03:06:08.882Z,5.07
2022-09-24T03:13:03.017Z,4.95
2022-09-24T03:16:07.929Z,4.50
2022-09-24T03:19:11.126Z,4.75
2022-09-24T03:22:14.188Z,4.62
2022-09-24T03:25:17.372Z,4.82
2022-09-24T03:28:27.415Z,5.10
2022-09-24T03:31:30.370Z,4.68
2022-09-24T03:34:33.646Z,5.05
2022-09-24T03:41:20.849Z,4.32
2022-09-24T03:44:28.801Z,4.43
2022-09-24T03:47:32.925Z,4.40
2022-09-24T03:50:42.501Z,4.03
2022-09-24T03:53:48.346Z,5.25
2022-09-24T03:56:51.541Z,4.47
2022-09-24T04:00:02.235Z,4.22
2022-09-24T04:03:09.520Z,4.28
2022-09-24T04:06:31.212Z,4.80
2022-09-24T04:09:34.155Z,4.45
2022-09-24T04:12:37.729Z,4.68
2022-09-24T04:15:40.781Z,3.97
2022-09-24T04:18:44.094Z,4.18
2022-09-24T04:21:46.876Z,4.40
2022-09-24T04:24:51.353Z,4.45
2022-09-24T04:28:05.976Z,4.72
2022-09-24T04:31:18.902Z,4.68
2022-09-24T04:34:21.751Z,5.10
2022-09-24T04:37:25.455Z,5.15
2022-09-24T04:40:28.356Z,4.00
2022-09-24T04:43:32.426Z,4.70
2022-09-24T04:46:35.420Z,3.80
2022-09-24T04:49:38.499Z,5.05
2022-09-24T04:52:41.274Z,4.10
2022-09-24T04:55:53.508Z,4.37
2022-09-24T04:58:56.700Z,4.50
2022-09-24T05:01:59.884Z,4.50
2022-09-24T05:05:03.339Z,4.28
2022-09-24T05:08:06.596Z,4.43
2022-09-24T05:11:09.604Z,4.65
2022-09-24T05:14:12.629Z,4.43
2022-09-24T05:17:15.551Z,4.62
2022-09-24T05:20:18.703Z,4.30
2022-09-24T05:23:21.728Z,4.97
2022-09-24T05:26:43.519Z,4.90
2022-09-24T05:29:55.372Z,3.80
2022-09-24T05:33:22.696Z,5.18
2022-09-24T05:36:36.803Z,4.65
2022-09-24T05:39:50.573Z,4.60
2022-09-24T05:43:01.715Z,5.22
2022-09-24T05:46:06.494Z,5.45
2022-09-24T05:49:09.490Z,4.72
2022-09-24T05:52:15.392Z,5.22
2022-09-24T05:55:25.926Z,5.03
2022-09-24T05:58:32.184Z,6.12
2022-09-24T06:01:35.032Z,5.80
2022-09-24T06:04:44.625Z,5.53
2022-09-24T06:08:08.740Z,6.40
2022-09-24T06:11:16.615Z,5.75
2022-09-24T06:14:28.579Z,5.47
2022-09-24T06:17:35.779Z,6.00
2022-09-24T06:20:50.864Z,6.93
2022-09-24T06:24:43.615Z,6.55
2022-09-24T06:32:14.918Z,6.25
2022-09-24T06:35:41.162Z,6.90
2022-09-24T06:38:45.519Z,7.70
2022-09-24T06:41:53.185Z,7.72
2022-09-24T06:45:06.840Z,7.62
2022-09-24T06:48:38.448Z,7.00
2022-09-24T06:52:23.639Z,7.68
2022-09-24T06:56:22.797Z,9.30
2022-09-24T06:59:25.856Z,7.87
2022-09-24T07:02:30.371Z,8.13
2022-09-24T07:05:36.286Z,7.35
2022-09-24T07:08:43.232Z,7.43
2022-09-24T07:11:46.716Z,7.20
2022-09-24T07:14:49.904Z,6.18
2022-09-24T07:18:00.066Z,6.95
2022-09-24T07:21:03.550Z,7.93
2022-09-24T07:24:11.766Z,7.00
2022-09-24T07:27:15.888Z,9.75
2022-09-24T07:31:37.558Z,6.30
2022-09-24T07:35:00.283Z,6.37
2022-09-24T07:38:39.900Z,5.62
2022-09-24T07:41:55.846Z,5.50
2022-09-24T07:45:33.453Z,5.78
2022-09-24T07:49:25.520Z,5.32
2022-09-24T07:53:11.044Z,5.53
2022-09-24T07:57:01.359Z,6.07
2022-09-24T08:00:43.998Z,5.43
2022-09-24T08:05:03.922Z,4.72
2022-09-24T08:08:24.198Z,5.03
2022-09-24T08:11:57.298Z,4.93
2022-09-24T08:15:15.519Z,4.70
2022-09-24T08:18:31.921Z,5.65
2022-09-24T08:22:15.823Z,5.28
2022-09-24T08:25:58.733Z,4.97
2022-09-24T08:29:01.577Z,5.10
2022-09-24T08:32:13.460Z,4.03
2022-09-24T08:35:16.296Z,4.50
2022-09-24T08:38:39.425Z,3.45
2022-09-24T09:18:43.784Z,1.30
2022-09-24T09:22:03.210Z,1.50
2022-09-24T09:25:19.827Z,1.40
2022-09-24T09:28:23.380Z,1.52
2022-09-24T09:32:05.464Z,1.50
2022-09-24T09:35:58.294Z,1.65
2022-09-24T09:39:03.740Z,1.12
2022-09-24T09:42:40.592Z,1.48
2022-09-24T09:46:01.779Z,1.05
2022-09-24T09:49:09.225Z,1.30
2022-09-24T09:52:25.967Z,1.33
2022-09-24T09:55:56.804Z,1.48
2022-09-24T09:59:19.532Z,1.37
2022-09-24T10:02:31.726Z,1.27
2022-09-24T10:05:35.027Z,1.50
2022-09-24T10:09:05.746Z,1.40
2022-09-24T10:12:14.796Z,2.83
2022-09-24T10:15:19.458Z,1.73
2022-09-24T10:18:32.030Z,1.40
2022-09-24T10:55:34.667Z,1.40
2022-09-24T10:59:00.028Z,1.58
2022-09-24T11:02:33.995Z,1.40
2022-09-24T11:05:53.110Z,1.45
2022-09-24T11:09:08.293Z,1.40
2022-09-24T11:12:50.944Z,2.45
2022-09-24T11:16:06.860Z,1.50
2022-09-24T11:19:49.125Z,1.67
2022-09-24T11:23:26.243Z,1.60
2022-09-24T11:26:45.146Z,1.70
2022-09-24T11:33:32.815Z,1.52
2022-09-24T11:36:47.879Z,1.35
2022-09-24T11:40:10.577Z,1.42
2022-09-24T11:43:58.624Z,1.60
2022-09-24T11:47:15.628Z,1.75
2022-09-24T11:50:48.552Z,1.58
2022-09-24T11:54:32.535Z,1.62
2022-09-24T11:57:53.008Z,1.27
2022-09-24T12:01:33.373Z,1.90
2022-09-24T12:04:56.067Z,1.65
2022-09-24T12:08:31.762Z,1.70
2022-09-24T12:11:39.329Z,1.55
2022-09-24T12:14:50.257Z,1.62
2022-09-24T12:17:57.940Z,1.40
2022-09-24T12:21:47.096Z,1.30
2022-09-24T12:25:00.973Z,1.60
2022-09-24T12:28:10.323Z,1.35
2022-09-24T12:34:47.485Z,1.40
2022-09-24T12:38:23.624Z,1.40
2022-09-24T12:41:31.412Z,1.45
2022-09-24T12:45:00.893Z,1.35
2022-09-24T12:48:04.406Z,1.50
2022-09-24T12:51:19.304Z,1.50
2022-09-24T12:54:46.788Z,1.60
2022-09-24T12:58:13.983Z,1.70
2022-09-24T13:01:31.480Z,1.40
2022-09-24T13:04:50.199Z,1.60
2022-09-24T13:08:07.207Z,1.30
2022-09-24T13:11:32.825Z,1.40
2022-09-24T13:15:06.819Z,1.42
2022-09-24T13:18:10.355Z,1.40
2022-09-24T13:21:34.752Z,1.33
2022-09-24T13:24:53.138Z,1.40
2022-09-24T13:28:21.910Z,1.70
2022-09-24T13:42:45.367Z,1.50
2022-09-24T13:45:49.584Z,1.40
2022-09-24T13:49:17.802Z,1.92
2022-09-24T13:52:24.959Z,1.50
2022-09-24T13:55:45.120Z,1.30
2022-09-24T14:03:00.505Z,1.40
2022-09-24T14:06:15.621Z,1.58
2022-09-24T14:09:39.668Z,1.23
2022-09-24T14:12:42.905Z,1.37
2022-09-24T14:15:57.998Z,2.03
2022-09-24T14:19:23.171Z,1.70
2022-09-24T14:22:35.215Z,1.62
2022-09-24T14:25:49.992Z,4.87
2022-09-24T14:29:59.132Z,5.78
2022-09-24T14:33:26.160Z,3.37
2022-09-24T14:36:49.373Z,4.45
2022-09-24T14:40:16.056Z,6.90
2022-09-24T14:43:49.558Z,4.43
2022-09-24T14:47:01.261Z,2.92
2022-09-24T14:50:32.135Z,5.22
2022-09-24T14:53:43.364Z,4.10
2022-09-24T14:56:46.850Z,2.05
2022-09-24T15:00:19.124Z,2.30
2022-09-24T15:03:39.206Z,1.73
2022-09-24T15:06:48.408Z,1.58
2022-09-24T15:10:25.288Z,1.50
2022-09-24T15:13:36.167Z,1.67
2022-09-24T15:17:11.213Z,1.75
2022-09-24T15:20:15.506Z,2.35
2022-09-24T15:23:18.934Z,3.33
2022-09-24T15:26:49.421Z,2.42
2022-09-24T15:30:20.027Z,2.65
2022-09-24T15:34:23.033Z,2.17
2022-09-24T15:37:28.403Z,2.20
2022-09-24T15:44:29.693Z,1.83
2022-09-24T15:47:53.323Z,1.90
2022-09-24T15:50:56.311Z,1.80
2022-09-24T15:53:59.801Z,1.83
2022-09-24T15:57:28.379Z,1.67
2022-09-24T16:01:04.843Z,1.98
2022-09-24T16:04:25.703Z,2.20
2022-09-24T16:07:28.850Z,2.40
2022-09-24T16:10:32.404Z,2.10
2022-09-24T16:13:35.977Z,8.63
2022-09-24T16:17:21.759Z,3.05
2022-09-24T16:20:55.098Z,1.92
2022-09-24T16:23:58.217Z,2.20
2022-09-24T16:27:01.735Z,2.47
2022-09-24T16:30:06.277Z,2.50
2022-09-24T16:33:09.087Z,2.08
2022-09-24T16:36:13.354Z,2.72
2022-09-24T16:39:26.803Z,2.80
2022-09-24T16:46:58.476Z,2.78
2022-09-24T16:50:16.590Z,2.40
2022-09-24T16:53:39.262Z,3.00
2022-09-24T16:57:28.628Z,2.60
2022-09-24T17:00:53.571Z,2.80
2022-09-24T17:03:58.862Z,2.80
2022-09-24T17:07:34.918Z,2.75
2022-09-24T17:10:42.752Z,2.62
2022-09-24T17:13:47.590Z,2.60
2022-09-24T17:16:50.438Z,2.70
2022-09-24T17:19:53.402Z,2.67
2022-09-24T17:22:56.212Z,2.75
2022-09-24T17:26:07.213Z,2.85
2022-09-24T17:29:10.024Z,2.90
2022-09-24T17:32:13.192Z,2.75
2022-09-24T17:35:16.366Z,3.25
2022-09-24T17:38:19.381Z,2.80
2022-09-24T17:41:23.411Z,2.80
2022-09-24T17:44:26.671Z,2.70
2022-09-24T17:47:49.645Z,2.83
2022-09-24T17:50:54.996Z,3.00
2022-09-24T17:54:10.964Z,2.60
2022-09-24T17:57:14.020Z,2.55
2022-09-24T18:00:17.202Z,2.58
2022-09-24T18:03:21.030Z,2.92
2022-09-24T18:06:42.866Z,2.70
2022-09-24T18:09:52.405Z,2.53
2022-09-24T18:12:55.467Z,2.90
2022-09-24T18:16:39.203Z,2.60
2022-09-24T18:20:02.027Z,2.60
2022-09-24T18:23:06.514Z,2.67
2022-09-24T18:26:16.044Z,2.83
2022-09-24T18:32:29.950Z,2.67
2022-09-24T18:35:33.666Z,2.83
2022-09-24T18:38:36.483Z,2.67
2022-09-24T18:41:40.950Z,2.90
2022-09-24T18:44:44.395Z,3.00
2022-09-24T18:47:47.468Z,2.85
2022-09-24T18:50:50.998Z,3.25
2022-09-24T18:54:05.972Z,3.08
2022-09-24T18:57:08.752Z,2.50
2022-09-24T19:00:32.048Z,2.85
2022-09-24T19:03:35.293Z,3.20
2022-09-24T19:06:41.217Z,3.00
2022-09-24T19:09:43.955Z,2.67
2022-09-24T19:12:46.813Z,2.92
2022-09-24T19:15:49.596Z,3.10
2022-09-24T19:18:53.960Z,2.85
2022-09-24T19:21:56.629Z,3.00
2022-09-24T19:24:59.655Z,2.97
2022-09-24T19:28:04.279Z,3.12
2022-09-24T19:31:13.568Z,3.25
2022-09-24T19:34:16.443Z,3.70
2022-09-24T19:37:19.416Z,3.47
2022-09-24T19:40:22.263Z,3.25
2022-09-24T19:43:25.520Z,3.42
2022-09-24T19:46:28.980Z,3.35
2022-09-24T19:49:32.263Z,3.42
2022-09-24T19:52:35.400Z,3.65
2022-09-24T19:55:38.252Z,3.45
2022-09-24T19:58:41.300Z,3.83
2022-09-24T20:01:44.759Z,3.58
2022-09-24T20:04:47.734Z,4.12
2022-09-24T20:07:50.445Z,3.80
2022-09-24T20:10:53.467Z,3.90
2022-09-24T20:13:56.421Z,4.53
2022-09-24T20:16:59.544Z,3.87
2022-09-24T20:20:05.370Z,4.82
2022-09-24T20:23:08.711Z,4.47
2022-09-24T20:26:50.892Z,4.40
2022-09-24T20:29:54.532Z,4.53
2022-09-24T21:02:26.493Z,4.78
2022-09-24T21:05:29.442Z,4.75
2022-09-24T21:08:37.392Z,5.10
2022-09-24T21:11:41.929Z,6.68
2022-09-24T21:14:44.774Z,5.55
2022-09-24T21:18:05.159Z,6.35
2022-09-24T21:21:13.254Z,6.55
2022-09-24T21:24:16.530Z,6.95
2022-09-24T21:27:19.538Z,7.68
2022-09-24T21:30:22.946Z,7.32
2022-09-24T21:33:25.521Z,8.45
2022-09-24T21:36:31.602Z,8.80
2022-09-24T21:39:34.830Z,7.60
2022-09-24T21:42:37.708Z,7.65
2022-09-24T21:45:40.537Z,7.43
2022-09-24T21:48:43.476Z,7.60
2022-09-24T21:51:46.435Z,6.90
2022-09-24T21:54:49.326Z,6.65
2022-09-24T21:57:51.921Z,6.72
2022-09-24T22:00:55.010Z,7.47
2022-09-24T22:03:59.828Z,6.78
2022-09-24T22:07:02.714Z,7.22
2022-09-24T22:10:06.188Z,6.15
2022-09-24T22:13:10.054Z,6.47
2022-09-24T22:16:12.973Z,5.72
2022-09-24T22:19:15.604Z,5.43
2022-09-24T22:22:20.782Z,5.80
2022-09-24T22:25:24.246Z,5.43
2022-09-24T22:28:28.300Z,5.18
2022-09-24T22:31:33.031Z,4.32
2022-09-24T22:34:54.448Z,5.22
2022-09-24T22:37:57.128Z,5.97
2022-09-24T22:41:04.654Z,4.93
2022-09-24T22:44:07.638Z,4.95
2022-09-24T22:47:10.519Z,4.47
2022-09-24T22:50:13.930Z,4.30
2022-09-24T22:53:16.794Z,4.57
2022-09-24T22:56:25.266Z,4.90
2022-09-24T22:59:28.560Z,5.00
